createdAt,value
2019-01-31T12:11:59.355Z,793.60
2019-01-31T15:07:34.077Z,486.40
2019-01-31T15:10:00.456Z,460.80
2019-01-31T15:12:26.871Z,460.80
2019-01-31T15:14:54.679Z,486.40
2019-01-31T15:17:20.996Z,486.40
2019-01-31T17:33:30.285Z,844.80
2019-01-31T17:35:56.703Z,1075.20
2019-01-31T17:38:23.112Z,1100.80
2019-01-31T17:40:49.545Z,1100.80
2019-01-31T17:43:15.964Z,1126.40
2019-01-31T17:45:42.385Z,1126.40
2019-01-31T17:48:08.804Z,1126.40
2019-01-31T17:50:35.224Z,1126.40
2019-01-31T17:53:01.739Z,1126.40
2019-01-31T17:55:28.157Z,1126.40
2019-01-31T17:57:54.597Z,1152.00
2019-01-31T18:00:24.202Z,1152.00
2019-01-31T18:02:49.078Z,1152.00
2019-01-31T18:05:15.501Z,1152.00
2019-01-31T18:07:41.919Z,1152.00
2019-01-31T18:10:08.344Z,1152.00
2019-01-31T18:12:34.824Z,1152.00
2019-01-31T18:15:01.243Z,1177.60
2019-01-31T18:17:27.689Z,1177.60
2019-01-31T18:19:54.109Z,1177.60
2019-01-31T18:22:20.591Z,1177.60
2019-01-31T18:24:47.001Z,1177.60
2019-01-31T18:27:13.441Z,1203.20
2019-01-31T18:29:39.853Z,1203.20
2019-01-31T18:32:06.270Z,1203.20
2019-01-31T18:34:32.797Z,1228.80
2019-01-31T18:36:59.208Z,1228.80
2019-01-31T18:39:25.649Z,1228.80
2019-01-31T18:41:52.137Z,1254.40
2019-01-31T18:44:18.564Z,1254.40
2019-01-31T18:46:44.976Z,1254.40
2019-01-31T18:49:11.393Z,1280.00
2019-01-31T18:51:37.901Z,1280.00
2019-01-31T18:54:04.309Z,1280.00
2019-01-31T18:56:30.741Z,1280.00
2019-01-31T18:58:57.282Z,1305.60
2019-01-31T19:01:23.744Z,1305.60
2019-01-31T19:03:50.157Z,1280.00
2019-01-31T19:06:16.651Z,1280.00
2019-01-31T19:08:44.140Z,1280.00
2019-01-31T19:11:10.585Z,1305.60
2019-01-31T19:13:36.989Z,1280.00
2019-01-31T19:16:05.485Z,1305.60
2019-01-31T19:18:31.766Z,1305.60
2019-01-31T19:20:58.264Z,1305.60
2019-01-31T19:23:24.647Z,1305.60
2019-01-31T19:25:51.154Z,1305.60
2019-01-31T19:28:17.571Z,1305.60
2019-01-31T19:30:43.973Z,1305.60
2019-01-31T19:33:10.562Z,1305.60
2019-01-31T19:35:37.108Z,1305.60
2019-01-31T19:38:03.488Z,1305.60
2019-01-31T19:40:29.896Z,1280.00
2019-01-31T19:42:56.387Z,1280.00
2019-01-31T19:45:22.845Z,1280.00
2019-01-31T19:47:49.205Z,1280.00
2019-01-31T19:50:15.700Z,1280.00
2019-01-31T19:52:42.208Z,1280.00
2019-01-31T19:55:08.624Z,1280.00
2019-01-31T19:57:35.029Z,1280.00
2019-01-31T20:00:01.440Z,1280.00
2019-01-31T20:02:27.864Z,1280.00
2019-01-31T20:04:54.308Z,1280.00
2019-01-31T20:07:20.787Z,1280.00
2019-01-31T20:09:47.212Z,1280.00
2019-01-31T20:12:13.707Z,1305.60
2019-01-31T20:14:40.133Z,1305.60
2019-01-31T20:17:08.459Z,1305.60
2019-01-31T20:19:34.613Z,1305.60
2019-01-31T20:22:01.096Z,1305.60
2019-01-31T20:24:27.510Z,1280.00
2019-01-31T20:26:54.074Z,1280.00
2019-01-31T20:29:20.454Z,1280.00
2019-01-31T20:34:18.660Z,1280.00
2019-01-31T20:36:45.103Z,1280.00
2019-01-31T20:39:11.508Z,1280.00
2019-01-31T20:41:38.044Z,1280.00
2019-01-31T20:44:04.453Z,1280.00
2019-01-31T20:46:39.755Z,1280.00
2019-01-31T20:48:58.928Z,1280.00
2019-01-31T20:51:26.806Z,1280.00
2019-01-31T20:53:53.217Z,1280.00
2019-01-31T20:56:19.802Z,1305.60
2019-01-31T20:58:46.236Z,1305.60
2019-01-31T21:01:15.044Z,1254.40
2019-01-31T21:03:41.417Z,1280.00
2019-01-31T21:06:07.848Z,1254.40
2019-01-31T21:08:34.579Z,1280.00
2019-01-31T21:11:01.032Z,1280.00
2019-01-31T21:13:27.585Z,1280.00
2019-01-31T21:15:53.999Z,1280.00
2019-01-31T21:18:20.798Z,1280.00
2019-01-31T21:20:47.469Z,1280.00
2019-01-31T21:23:13.881Z,1305.60
2019-01-31T21:25:40.291Z,1305.60
2019-01-31T21:28:06.742Z,1305.60
2019-01-31T21:30:33.301Z,1305.60
2019-01-31T21:32:59.914Z,1305.60
2019-01-31T21:35:26.396Z,1305.60
2019-01-31T21:37:52.788Z,1305.60
2019-01-31T21:40:19.215Z,1305.60
2019-01-31T21:42:45.772Z,1305.60
2019-01-31T21:45:12.194Z,1305.60
2019-01-31T21:47:38.611Z,1305.60
2019-01-31T21:50:05.016Z,1305.60
2019-01-31T21:52:31.544Z,1305.60
2019-01-31T21:54:57.952Z,1280.00
2019-01-31T21:57:24.399Z,1280.00
2019-01-31T21:59:50.800Z,1254.40
2019-01-31T22:02:17.245Z,1280.00
2019-01-31T22:04:43.696Z,1280.00
2019-01-31T22:07:10.100Z,1280.00
2019-01-31T22:09:36.520Z,1280.00
2019-01-31T22:12:03.014Z,1280.00
2019-01-31T22:14:29.425Z,1254.40
2019-01-31T22:16:55.846Z,1254.40
2019-01-31T22:19:22.291Z,1254.40
2019-01-31T22:21:48.712Z,1254.40
2019-01-31T22:24:15.122Z,1254.40
2019-01-31T22:26:41.567Z,1254.40
2019-01-31T22:29:08.395Z,1254.40
2019-01-31T22:31:35.192Z,1254.40
2019-01-31T22:34:01.612Z,1254.40
2019-01-31T22:36:28.032Z,1254.40
2019-01-31T22:38:54.470Z,1254.40
2019-01-31T22:41:20.905Z,1254.40
2019-01-31T22:43:47.309Z,1254.40
2019-01-31T22:46:13.745Z,1254.40
2019-01-31T22:48:40.154Z,1254.40
2019-01-31T22:51:06.647Z,1254.40
2019-01-31T22:53:33.095Z,1254.40
2019-01-31T22:55:59.513Z,1254.40
2019-01-31T22:58:25.931Z,1254.40
2019-01-31T23:00:52.407Z,1254.40
2019-01-31T23:03:18.828Z,1254.40
2019-01-31T23:05:45.246Z,1254.40
2019-01-31T23:08:11.682Z,1228.80
2019-01-31T23:10:38.112Z,1228.80
2019-01-31T23:13:04.523Z,1254.40
2019-01-31T23:15:30.955Z,1228.80
2019-01-31T23:17:57.368Z,1254.40
2019-01-31T23:20:23.809Z,1228.80
2019-01-31T23:22:50.228Z,1228.80
2019-01-31T23:25:16.636Z,1228.80
2019-01-31T23:27:43.076Z,1228.80
2019-01-31T23:30:09.488Z,1228.80
2019-01-31T23:32:35.902Z,1228.80
2019-01-31T23:35:02.337Z,1228.80
2019-01-31T23:37:28.748Z,1228.80
2019-01-31T23:39:55.170Z,1228.80
2019-01-31T23:42:21.684Z,1228.80
2019-01-31T23:44:48.096Z,1228.80
2019-01-31T23:47:14.512Z,1228.80
2019-01-31T23:49:40.947Z,1228.80
2019-01-31T23:52:07.393Z,1228.80
2019-01-31T23:54:33.859Z,1228.80
2019-01-31T23:57:00.268Z,1228.80
2019-01-31T23:59:26.680Z,1228.80
